sensor_id;sensor_type;location;lat;lon;timestamp;temperature;humidity
23560;DHT22;11958;50.836;4.438;2022-08-25T00:01:22;22.70;67.50
23560;DHT22;11958;50.836;4.438;2022-08-25T00:03:49;22.80;67.40
23560;DHT22;11958;50.836;4.438;2022-08-25T00:06:14;22.90;66.60
23560;DHT22;11958;50.836;4.438;2022-08-25T00:08:41;23.10;65.70
23560;DHT22;11958;50.836;4.438;2022-08-25T00:11:13;23.00;66.20
23560;DHT22;11958;50.836;4.438;2022-08-25T00:13:41;22.90;66.80
23560;DHT22;11958;50.836;4.438;2022-08-25T00:16:09;22.90;67.40
23560;DHT22;11958;50.836;4.438;2022-08-25T00:18:37;22.70;68.10
23560;DHT22;11958;50.836;4.438;2022-08-25T00:21:04;22.70;68.70
23560;DHT22;11958;50.836;4.438;2022-08-25T00:23:30;22.40;69.20
23560;DHT22;11958;50.836;4.438;2022-08-25T00:25:58;22.50;68.20
23560;DHT22;11958;50.836;4.438;2022-08-25T00:28:24;22.50;68.60
23560;DHT22;11958;50.836;4.438;2022-08-25T00:30:50;22.50;68.20
23560;DHT22;11958;50.836;4.438;2022-08-25T00:33:16;22.40;68.80
23560;DHT22;11958;50.836;4.438;2022-08-25T00:35:43;22.40;68.80
23560;DHT22;11958;50.836;4.438;2022-08-25T00:38:10;22.10;69.70
23560;DHT22;11958;50.836;4.438;2022-08-25T00:40:39;22.10;69.70
23560;DHT22;11958;50.836;4.438;2022-08-25T00:43:06;22.10;70.10
23560;DHT22;11958;50.836;4.438;2022-08-25T00:45:33;21.90;70.90
23560;DHT22;11958;50.836;4.438;2022-08-25T00:47:59;22.20;69.90
23560;DHT22;11958;50.836;4.438;2022-08-25T00:50:27;22.30;69.00
23560;DHT22;11958;50.836;4.438;2022-08-25T00:52:55;22.20;69.50
23560;DHT22;11958;50.836;4.438;2022-08-25T00:55:32;21.80;71.30
23560;DHT22;11958;50.836;4.438;2022-08-25T00:58:03;21.70;71.50
23560;DHT22;11958;50.836;4.438;2022-08-25T01:00:38;21.60;71.60
23560;DHT22;11958;50.836;4.438;2022-08-25T01:03:05;21.90;71.50
23560;DHT22;11958;50.836;4.438;2022-08-25T01:05:31;21.60;71.70
23560;DHT22;11958;50.836;4.438;2022-08-25T01:07:57;21.50;72.00
23560;DHT22;11958;50.836;4.438;2022-08-25T01:10:25;21.40;73.40
23560;DHT22;11958;50.836;4.438;2022-08-25T01:12:52;21.50;72.80
23560;DHT22;11958;50.836;4.438;2022-08-25T01:15:20;21.20;73.70
23560;DHT22;11958;50.836;4.438;2022-08-25T01:17:54;21.10;74.00
23560;DHT22;11958;50.836;4.438;2022-08-25T01:20:23;21.00;74.30
23560;DHT22;11958;50.836;4.438;2022-08-25T01:22:51;21.10;74.40
23560;DHT22;11958;50.836;4.438;2022-08-25T01:25:38;21.60;72.50
23560;DHT22;11958;50.836;4.438;2022-08-25T01:28:07;21.60;72.40
23560;DHT22;11958;50.836;4.438;2022-08-25T01:30:34;21.30;73.20
23560;DHT22;11958;50.836;4.438;2022-08-25T01:33:03;21.10;74.00
23560;DHT22;11958;50.836;4.438;2022-08-25T01:35:29;20.90;74.30
23560;DHT22;11958;50.836;4.438;2022-08-25T01:37:55;21.00;74.90
23560;DHT22;11958;50.836;4.438;2022-08-25T01:40:21;21.00;75.10
23560;DHT22;11958;50.836;4.438;2022-08-25T01:45:41;21.00;75.20
23560;DHT22;11958;50.836;4.438;2022-08-25T01:48:09;21.20;73.90
23560;DHT22;11958;50.836;4.438;2022-08-25T01:50:36;21.30;73.80
23560;DHT22;11958;50.836;4.438;2022-08-25T01:55:32;20.80;76.90
23560;DHT22;11958;50.836;4.438;2022-08-25T01:58:24;20.80;76.70
23560;DHT22;11958;50.836;4.438;2022-08-25T02:00:51;20.70;77.10
23560;DHT22;11958;50.836;4.438;2022-08-25T02:03:20;20.60;77.20
23560;DHT22;11958;50.836;4.438;2022-08-25T02:05:46;20.70;77.30
23560;DHT22;11958;50.836;4.438;2022-08-25T02:08:11;20.60;77.40
23560;DHT22;11958;50.836;4.438;2022-08-25T02:10:38;20.60;77.80
23560;DHT22;11958;50.836;4.438;2022-08-25T02:13:05;20.50;77.60
23560;DHT22;11958;50.836;4.438;2022-08-25T02:15:31;20.80;76.90
23560;DHT22;11958;50.836;4.438;2022-08-25T02:17:57;20.80;76.70
23560;DHT22;11958;50.836;4.438;2022-08-25T02:20:24;20.70;77.00
23560;DHT22;11958;50.836;4.438;2022-08-25T02:22:50;20.70;77.00
23560;DHT22;11958;50.836;4.438;2022-08-25T02:25:17;20.80;77.10
23560;DHT22;11958;50.836;4.438;2022-08-25T02:27:44;21.00;74.50
23560;DHT22;11958;50.836;4.438;2022-08-25T02:30:11;21.00;74.90
23560;DHT22;11958;50.836;4.438;2022-08-25T02:32:38;20.40;77.60
23560;DHT22;11958;50.836;4.438;2022-08-25T02:35:04;20.40;78.00
23560;DHT22;11958;50.836;4.438;2022-08-25T02:37:30;20.40;78.00
23560;DHT22;11958;50.836;4.438;2022-08-25T02:39:56;20.50;78.20
23560;DHT22;11958;50.836;4.438;2022-08-25T02:42:22;20.30;78.20
23560;DHT22;11958;50.836;4.438;2022-08-25T02:44:49;20.20;78.50
23560;DHT22;11958;50.836;4.438;2022-08-25T02:47:14;20.30;78.10
23560;DHT22;11958;50.836;4.438;2022-08-25T02:49:41;20.40;78.00
23560;DHT22;11958;50.836;4.438;2022-08-25T02:52:06;20.40;77.60
23560;DHT22;11958;50.836;4.438;2022-08-25T02:54:33;20.40;78.10
23560;DHT22;11958;50.836;4.438;2022-08-25T02:56:58;20.20;78.40
23560;DHT22;11958;50.836;4.438;2022-08-25T02:59:24;20.10;78.60
23560;DHT22;11958;50.836;4.438;2022-08-25T03:01:50;20.20;78.60
23560;DHT22;11958;50.836;4.438;2022-08-25T03:04:16;20.10;78.50
23560;DHT22;11958;50.836;4.438;2022-08-25T03:06:42;20.10;79.10
23560;DHT22;11958;50.836;4.438;2022-08-25T03:09:08;20.10;79.30
23560;DHT22;11958;50.836;4.438;2022-08-25T03:11:34;20.20;78.60
23560;DHT22;11958;50.836;4.438;2022-08-25T03:13:59;20.20;78.30
23560;DHT22;11958;50.836;4.438;2022-08-25T03:16:28;20.30;78.10
23560;DHT22;11958;50.836;4.438;2022-08-25T03:18:53;20.40;78.10
23560;DHT22;11958;50.836;4.438;2022-08-25T03:21:19;20.40;77.60
23560;DHT22;11958;50.836;4.438;2022-08-25T03:23:45;20.60;77.00
23560;DHT22;11958;50.836;4.438;2022-08-25T03:26:11;20.40;77.40
23560;DHT22;11958;50.836;4.438;2022-08-25T03:28:55;20.10;78.60
23560;DHT22;11958;50.836;4.438;2022-08-25T03:31:23;20.10;78.60
23560;DHT22;11958;50.836;4.438;2022-08-25T03:33:50;20.30;78.00
23560;DHT22;11958;50.836;4.438;2022-08-25T03:36:16;20.40;77.50
23560;DHT22;11958;50.836;4.438;2022-08-25T03:38:42;20.40;76.90
23560;DHT22;11958;50.836;4.438;2022-08-25T03:41:15;20.30;76.90
23560;DHT22;11958;50.836;4.438;2022-08-25T03:43:42;20.20;77.70
23560;DHT22;11958;50.836;4.438;2022-08-25T03:46:08;20.40;76.90
23560;DHT22;11958;50.836;4.438;2022-08-25T03:48:34;20.40;76.80
23560;DHT22;11958;50.836;4.438;2022-08-25T03:50:59;20.40;76.70
23560;DHT22;11958;50.836;4.438;2022-08-25T03:53:25;20.20;76.90
23560;DHT22;11958;50.836;4.438;2022-08-25T03:55:51;20.10;76.80
23560;DHT22;11958;50.836;4.438;2022-08-25T03:58:16;20.30;76.40
23560;DHT22;11958;50.836;4.438;2022-08-25T04:00:42;20.60;75.20
23560;DHT22;11958;50.836;4.438;2022-08-25T04:03:09;20.30;75.20
23560;DHT22;11958;50.836;4.438;2022-08-25T04:05:34;20.30;75.30
23560;DHT22;11958;50.836;4.438;2022-08-25T04:08:00;20.20;75.50
23560;DHT22;11958;50.836;4.438;2022-08-25T04:10:26;20.30;74.90
23560;DHT22;11958;50.836;4.438;2022-08-25T04:12:52;20.20;75.30
23560;DHT22;11958;50.836;4.438;2022-08-25T04:15:18;20.30;75.20
23560;DHT22;11958;50.836;4.438;2022-08-25T04:17:43;20.50;74.70
23560;DHT22;11958;50.836;4.438;2022-08-25T04:20:10;20.40;73.70
23560;DHT22;11958;50.836;4.438;2022-08-25T04:22:37;20.40;74.00
23560;DHT22;11958;50.836;4.438;2022-08-25T04:25:04;20.30;73.80
23560;DHT22;11958;50.836;4.438;2022-08-25T04:27:30;20.40;74.00
23560;DHT22;11958;50.836;4.438;2022-08-25T04:29:56;20.20;74.00
23560;DHT22;11958;50.836;4.438;2022-08-25T04:32:21;20.30;73.50
23560;DHT22;11958;50.836;4.438;2022-08-25T04:34:47;20.30;72.90
23560;DHT22;11958;50.836;4.438;2022-08-25T04:37:13;20.10;73.20
23560;DHT22;11958;50.836;4.438;2022-08-25T04:39:39;20.20;73.00
23560;DHT22;11958;50.836;4.438;2022-08-25T04:42:05;20.10;73.40
23560;DHT22;11958;50.836;4.438;2022-08-25T04:44:31;20.40;72.00
23560;DHT22;11958;50.836;4.438;2022-08-25T04:46:57;20.40;71.10
23560;DHT22;11958;50.836;4.438;2022-08-25T04:49:23;20.50;70.80
23560;DHT22;11958;50.836;4.438;2022-08-25T04:51:49;20.50;70.60
23560;DHT22;11958;50.836;4.438;2022-08-25T04:54:15;20.70;69.80
23560;DHT22;11958;50.836;4.438;2022-08-25T04:56:42;20.90;69.10
23560;DHT22;11958;50.836;4.438;2022-08-25T04:59:10;20.90;67.30
23560;DHT22;11958;50.836;4.438;2022-08-25T05:01:36;21.10;66.50
23560;DHT22;11958;50.836;4.438;2022-08-25T05:04:05;21.00;66.50
23560;DHT22;11958;50.836;4.438;2022-08-25T05:06:31;20.90;66.50
23560;DHT22;11958;50.836;4.438;2022-08-25T05:08:58;21.00;66.10
23560;DHT22;11958;50.836;4.438;2022-08-25T05:11:25;21.10;66.00
23560;DHT22;11958;50.836;4.438;2022-08-25T05:13:52;21.00;65.60
23560;DHT22;11958;50.836;4.438;2022-08-25T05:16:20;21.10;65.40
23560;DHT22;11958;50.836;4.438;2022-08-25T05:18:47;21.20;64.80
23560;DHT22;11958;50.836;4.438;2022-08-25T05:21:18;21.00;65.10
23560;DHT22;11958;50.836;4.438;2022-08-25T05:23:45;21.00;65.50
23560;DHT22;11958;50.836;4.438;2022-08-25T05:26:19;21.20;64.90
23560;DHT22;11958;50.836;4.438;2022-08-25T05:28:46;21.00;66.10
23560;DHT22;11958;50.836;4.438;2022-08-25T05:31:16;21.30;65.20
23560;DHT22;11958;50.836;4.438;2022-08-25T05:33:42;21.40;64.10
23560;DHT22;11958;50.836;4.438;2022-08-25T05:36:09;21.40;63.70
23560;DHT22;11958;50.836;4.438;2022-08-25T05:38:36;21.40;63.80
23560;DHT22;11958;50.836;4.438;2022-08-25T05:41:04;21.50;63.30
23560;DHT22;11958;50.836;4.438;2022-08-25T05:43:31;21.50;63.80
23560;DHT22;11958;50.836;4.438;2022-08-25T05:45:57;21.40;64.10
23560;DHT22;11958;50.836;4.438;2022-08-25T05:48:25;21.50;63.20
23560;DHT22;11958;50.836;4.438;2022-08-25T05:50:52;21.50;61.90
23560;DHT22;11958;50.836;4.438;2022-08-25T05:53:19;21.80;60.30
23560;DHT22;11958;50.836;4.438;2022-08-25T05:55:44;21.90;59.90
23560;DHT22;11958;50.836;4.438;2022-08-25T05:58:10;22.00;59.80
23560;DHT22;11958;50.836;4.438;2022-08-25T06:00:37;22.00;58.90
23560;DHT22;11958;50.836;4.438;2022-08-25T06:03:02;22.20;58.90
23560;DHT22;11958;50.836;4.438;2022-08-25T06:05:28;22.40;57.30
23560;DHT22;11958;50.836;4.438;2022-08-25T06:07:54;22.60;57.60
23560;DHT22;11958;50.836;4.438;2022-08-25T06:10:20;22.60;57.40
23560;DHT22;11958;50.836;4.438;2022-08-25T06:12:46;22.70;57.80
23560;DHT22;11958;50.836;4.438;2022-08-25T06:15:18;22.70;57.10
23560;DHT22;11958;50.836;4.438;2022-08-25T06:17:44;22.80;56.90
23560;DHT22;11958;50.836;4.438;2022-08-25T06:20:16;23.10;56.20
23560;DHT22;11958;50.836;4.438;2022-08-25T06:22:42;23.10;55.90
23560;DHT22;11958;50.836;4.438;2022-08-25T06:25:10;23.10;54.70
23560;DHT22;11958;50.836;4.438;2022-08-25T06:27:36;23.10;53.60
23560;DHT22;11958;50.836;4.438;2022-08-25T06:30:04;23.10;53.60
23560;DHT22;11958;50.836;4.438;2022-08-25T06:32:35;23.10;53.90
23560;DHT22;11958;50.836;4.438;2022-08-25T06:35:05;23.10;54.20
23560;DHT22;11958;50.836;4.438;2022-08-25T06:37:31;22.90;55.10
23560;DHT22;11958;50.836;4.438;2022-08-25T06:39:57;22.90;55.10
23560;DHT22;11958;50.836;4.438;2022-08-25T06:42:22;23.00;54.60
23560;DHT22;11958;50.836;4.438;2022-08-25T06:44:48;23.00;54.70
23560;DHT22;11958;50.836;4.438;2022-08-25T06:47:14;23.10;54.20
23560;DHT22;11958;50.836;4.438;2022-08-25T06:49:41;23.30;53.30
23560;DHT22;11958;50.836;4.438;2022-08-25T06:52:07;23.40;53.50
23560;DHT22;11958;50.836;4.438;2022-08-25T06:54:33;23.50;52.70
23560;DHT22;11958;50.836;4.438;2022-08-25T06:56:59;23.60;53.10
23560;DHT22;11958;50.836;4.438;2022-08-25T06:59:26;23.70;51.30
23560;DHT22;11958;50.836;4.438;2022-08-25T07:01:52;23.90;50.60
23560;DHT22;11958;50.836;4.438;2022-08-25T07:04:18;24.00;50.60
23560;DHT22;11958;50.836;4.438;2022-08-25T07:06:43;24.10;49.90
23560;DHT22;11958;50.836;4.438;2022-08-25T07:09:10;24.20;50.30
23560;DHT22;11958;50.836;4.438;2022-08-25T07:11:38;24.30;49.90
23560;DHT22;11958;50.836;4.438;2022-08-25T07:14:05;24.40;50.10
23560;DHT22;11958;50.836;4.438;2022-08-25T07:16:32;24.50;49.80
23560;DHT22;11958;50.836;4.438;2022-08-25T07:18:59;24.50;50.40
23560;DHT22;11958;50.836;4.438;2022-08-25T07:21:27;24.60;49.70
23560;DHT22;11958;50.836;4.438;2022-08-25T07:23:53;24.60;49.80
23560;DHT22;11958;50.836;4.438;2022-08-25T07:26:22;24.50;49.80
23560;DHT22;11958;50.836;4.438;2022-08-25T07:28:48;24.70;49.30
23560;DHT22;11958;50.836;4.438;2022-08-25T07:31:14;24.60;49.10
23560;DHT22;11958;50.836;4.438;2022-08-25T07:33:40;24.40;49.80
23560;DHT22;11958;50.836;4.438;2022-08-25T07:36:26;24.40;49.80
23560;DHT22;11958;50.836;4.438;2022-08-25T07:38:52;24.30;50.80
23560;DHT22;11958;50.836;4.438;2022-08-25T07:41:17;24.20;50.30
23560;DHT22;11958;50.836;4.438;2022-08-25T07:43:46;24.30;49.20
23560;DHT22;11958;50.836;4.438;2022-08-25T07:46:12;24.60;49.70
23560;DHT22;11958;50.836;4.438;2022-08-25T07:48:40;24.60;49.00
23560;DHT22;11958;50.836;4.438;2022-08-25T07:51:12;25.10;47.20
23560;DHT22;11958;50.836;4.438;2022-08-25T07:53:42;25.00;49.10
23560;DHT22;11958;50.836;4.438;2022-08-25T07:56:11;25.20;48.50
23560;DHT22;11958;50.836;4.438;2022-08-25T07:58:38;25.50;45.40
23560;DHT22;11958;50.836;4.438;2022-08-25T08:01:04;25.50;46.70
23560;DHT22;11958;50.836;4.438;2022-08-25T08:03:30;25.40;47.00
23560;DHT22;11958;50.836;4.438;2022-08-25T08:06:05;25.60;45.70
23560;DHT22;11958;50.836;4.438;2022-08-25T10:21:13;30.90;25.80
23560;DHT22;11958;50.836;4.438;2022-08-25T10:23:48;31.00;26.90
23560;DHT22;11958;50.836;4.438;2022-08-25T10:32:07;31.10;25.40
23560;DHT22;11958;50.836;4.438;2022-08-25T10:50:32;31.70;25.40
23560;DHT22;11958;50.836;4.438;2022-08-25T10:53:48;32.20;22.70
23560;DHT22;11958;50.836;4.438;2022-08-25T10:56:14;32.10;23.00
23560;DHT22;11958;50.836;4.438;2022-08-25T10:58:51;31.80;25.20
23560;DHT22;11958;50.836;4.438;2022-08-25T11:04:03;31.70;23.40
23560;DHT22;11958;50.836;4.438;2022-08-25T11:06:39;32.30;22.20
23560;DHT22;11958;50.836;4.438;2022-08-25T11:09:12;32.50;22.80
23560;DHT22;11958;50.836;4.438;2022-08-25T11:11:58;32.30;22.20
23560;DHT22;11958;50.836;4.438;2022-08-25T11:14:33;32.00;24.00
23560;DHT22;11958;50.836;4.438;2022-08-25T11:19:42;31.70;22.10
23560;DHT22;11958;50.836;4.438;2022-08-25T11:22:14;32.20;21.60
23560;DHT22;11958;50.836;4.438;2022-08-25T11:25:11;32.20;21.50
23560;DHT22;11958;50.836;4.438;2022-08-25T11:27:51;32.80;20.70
23560;DHT22;11958;50.836;4.438;2022-08-25T11:30:19;32.60;21.50
23560;DHT22;11958;50.836;4.438;2022-08-25T11:32:49;33.10;20.30
23560;DHT22;11958;50.836;4.438;2022-08-25T11:35:18;32.90;20.30
23560;DHT22;11958;50.836;4.438;2022-08-25T11:40:43;32.90;20.60
23560;DHT22;11958;50.836;4.438;2022-08-25T11:45:59;32.90;21.20
23560;DHT22;11958;50.836;4.438;2022-08-25T11:48:59;33.10;20.40
23560;DHT22;11958;50.836;4.438;2022-08-25T11:51:28;33.50;19.60
23560;DHT22;11958;50.836;4.438;2022-08-25T11:54:23;33.50;19.90
23560;DHT22;11958;50.836;4.438;2022-08-25T11:57:23;33.60;19.40
23560;DHT22;11958;50.836;4.438;2022-08-25T12:08:04;33.60;19.10
23560;DHT22;11958;50.836;4.438;2022-08-25T12:11:07;33.90;18.60
23560;DHT22;11958;50.836;4.438;2022-08-25T12:16:04;35.10;17.70
23560;DHT22;11958;50.836;4.438;2022-08-25T12:23:34;36.60;18.40
23560;DHT22;11958;50.836;4.438;2022-08-25T12:28:52;38.30;16.50
23560;DHT22;11958;50.836;4.438;2022-08-25T12:31:45;39.80;16.10
23560;DHT22;11958;50.836;4.438;2022-08-25T12:36:36;40.40;13.20
23560;DHT22;11958;50.836;4.438;2022-08-25T12:39:30;40.70;14.10
23560;DHT22;11958;50.836;4.438;2022-08-25T12:42:06;39.80;13.50
23560;DHT22;11958;50.836;4.438;2022-08-25T12:47:50;37.10;15.70
23560;DHT22;11958;50.836;4.438;2022-08-25T12:50:29;35.60;17.80
23560;DHT22;11958;50.836;4.438;2022-08-25T12:53:29;35.80;16.40
23560;DHT22;11958;50.836;4.438;2022-08-25T12:56:24;38.00;14.60
23560;DHT22;11958;50.836;4.438;2022-08-25T13:01:51;41.60;12.50
23560;DHT22;11958;50.836;4.438;2022-08-25T13:04:25;42.30;11.10
23560;DHT22;11958;50.836;4.438;2022-08-25T13:12:21;42.10;10.90
23560;DHT22;11958;50.836;4.438;2022-08-25T13:14:55;43.20;10.50
23560;DHT22;11958;50.836;4.438;2022-08-25T13:17:34;44.50;10.00
23560;DHT22;11958;50.836;4.438;2022-08-25T13:20:29;44.30;9.40
23560;DHT22;11958;50.836;4.438;2022-08-25T13:23:04;42.30;10.60
23560;DHT22;11958;50.836;4.438;2022-08-25T13:25:30;39.70;12.20
23560;DHT22;11958;50.836;4.438;2022-08-25T13:27:59;39.30;12.30
23560;DHT22;11958;50.836;4.438;2022-08-25T13:30:35;40.90;11.10
23560;DHT22;11958;50.836;4.438;2022-08-25T13:33:21;42.20;10.50
23560;DHT22;11958;50.836;4.438;2022-08-25T13:35:49;43.50;10.00
23560;DHT22;11958;50.836;4.438;2022-08-25T13:38:17;44.30;8.80
23560;DHT22;11958;50.836;4.438;2022-08-25T13:40:43;44.30;9.20
23560;DHT22;11958;50.836;4.438;2022-08-25T13:43:14;43.20;9.20
23560;DHT22;11958;50.836;4.438;2022-08-25T13:45:47;42.90;9.20
23560;DHT22;11958;50.836;4.438;2022-08-25T13:48:30;42.50;10.20
23560;DHT22;11958;50.836;4.438;2022-08-25T13:51:23;42.30;9.40
23560;DHT22;11958;50.836;4.438;2022-08-25T13:53:56;40.90;10.70
23560;DHT22;11958;50.836;4.438;2022-08-25T13:56:41;39.80;10.80
23560;DHT22;11958;50.836;4.438;2022-08-25T13:59:22;39.30;11.50
23560;DHT22;11958;50.836;4.438;2022-08-25T14:01:49;38.90;12.20
23560;DHT22;11958;50.836;4.438;2022-08-25T14:09:49;38.40;13.00
23560;DHT22;11958;50.836;4.438;2022-08-25T14:12:47;40.20;11.50
23560;DHT22;11958;50.836;4.438;2022-08-25T14:15:31;42.00;10.00
23560;DHT22;11958;50.836;4.438;2022-08-25T14:18:07;42.10;10.20
23560;DHT22;11958;50.836;4.438;2022-08-25T14:20:35;40.90;13.00
23560;DHT22;11958;50.836;4.438;2022-08-25T14:23:05;38.30;16.10
23560;DHT22;11958;50.836;4.438;2022-08-25T14:25:31;36.70;18.00
23560;DHT22;11958;50.836;4.438;2022-08-25T14:28:02;35.70;19.10
23560;DHT22;11958;50.836;4.438;2022-08-25T14:30:32;35.30;19.20
23560;DHT22;11958;50.836;4.438;2022-08-25T14:32:59;36.30;18.80
23560;DHT22;11958;50.836;4.438;2022-08-25T14:35:29;37.10;17.90
23560;DHT22;11958;50.836;4.438;2022-08-25T14:37:58;37.80;16.10
23560;DHT22;11958;50.836;4.438;2022-08-25T14:40:24;37.80;16.30
23560;DHT22;11958;50.836;4.438;2022-08-25T14:42:50;38.20;15.50
23560;DHT22;11958;50.836;4.438;2022-08-25T14:45:17;38.40;15.30
23560;DHT22;11958;50.836;4.438;2022-08-25T14:47:43;38.50;15.50
23560;DHT22;11958;50.836;4.438;2022-08-25T14:50:12;38.00;15.50
23560;DHT22;11958;50.836;4.438;2022-08-25T14:52:40;37.70;16.00
23560;DHT22;11958;50.836;4.438;2022-08-25T14:55:07;37.80;15.50
23560;DHT22;11958;50.836;4.438;2022-08-25T14:57:32;37.10;16.40
23560;DHT22;11958;50.836;4.438;2022-08-25T15:00:00;36.00;17.40
23560;DHT22;11958;50.836;4.438;2022-08-25T15:02:25;35.50;17.30
23560;DHT22;11958;50.836;4.438;2022-08-25T15:05:02;35.00;18.30
23560;DHT22;11958;50.836;4.438;2022-08-25T15:07:31;34.50;19.50
23560;DHT22;11958;50.836;4.438;2022-08-25T15:10:16;34.30;19.90
23560;DHT22;11958;50.836;4.438;2022-08-25T15:12:42;34.20;19.70
23560;DHT22;11958;50.836;4.438;2022-08-25T15:15:08;34.30;19.60
23560;DHT22;11958;50.836;4.438;2022-08-25T15:17:34;33.90;19.70
23560;DHT22;11958;50.836;4.438;2022-08-25T15:20:03;33.50;19.70
23560;DHT22;11958;50.836;4.438;2022-08-25T15:22:29;33.40;20.10
23560;DHT22;11958;50.836;4.438;2022-08-25T15:24:55;33.50;20.10
23560;DHT22;11958;50.836;4.438;2022-08-25T15:27:20;33.20;22.10
23560;DHT22;11958;50.836;4.438;2022-08-25T15:29:47;32.70;23.60
23560;DHT22;11958;50.836;4.438;2022-08-25T15:32:13;32.50;23.90
23560;DHT22;11958;50.836;4.438;2022-08-25T15:34:39;32.50;24.10
23560;DHT22;11958;50.836;4.438;2022-08-25T15:37:07;32.40;25.40
23560;DHT22;11958;50.836;4.438;2022-08-25T15:39:34;32.30;26.40
23560;DHT22;11958;50.836;4.438;2022-08-25T15:41:59;32.20;27.70
23560;DHT22;11958;50.836;4.438;2022-08-25T15:44:25;31.90;28.40
23560;DHT22;11958;50.836;4.438;2022-08-25T15:46:52;31.80;30.00
23560;DHT22;11958;50.836;4.438;2022-08-25T15:49:21;31.40;31.50
23560;DHT22;11958;50.836;4.438;2022-08-25T15:51:47;31.10;32.30
23560;DHT22;11958;50.836;4.438;2022-08-25T15:54:12;31.10;32.90
23560;DHT22;11958;50.836;4.438;2022-08-25T15:56:41;31.00;32.40
23560;DHT22;11958;50.836;4.438;2022-08-25T15:59:09;30.80;33.20
23560;DHT22;11958;50.836;4.438;2022-08-25T16:01:34;30.60;33.60
23560;DHT22;11958;50.836;4.438;2022-08-25T16:04:00;30.70;33.80
23560;DHT22;11958;50.836;4.438;2022-08-25T16:06:26;30.50;34.40
23560;DHT22;11958;50.836;4.438;2022-08-25T16:08:52;30.40;34.90
23560;DHT22;11958;50.836;4.438;2022-08-25T16:11:21;30.30;35.40
23560;DHT22;11958;50.836;4.438;2022-08-25T16:13:51;30.30;35.50
23560;DHT22;11958;50.836;4.438;2022-08-25T16:16:18;30.40;35.20
23560;DHT22;11958;50.836;4.438;2022-08-25T16:18:44;30.40;36.90
23560;DHT22;11958;50.836;4.438;2022-08-25T16:21:12;29.80;37.90
23560;DHT22;11958;50.836;4.438;2022-08-25T16:23:39;29.60;39.30
23560;DHT22;11958;50.836;4.438;2022-08-25T16:26:12;29.40;40.10
23560;DHT22;11958;50.836;4.438;2022-08-25T16:28:39;29.40;41.50
23560;DHT22;11958;50.836;4.438;2022-08-25T16:31:08;29.30;40.80
23560;DHT22;11958;50.836;4.438;2022-08-25T16:33:34;29.30;40.90
23560;DHT22;11958;50.836;4.438;2022-08-25T16:36:18;29.20;41.50
23560;DHT22;11958;50.836;4.438;2022-08-25T16:39:03;29.20;41.80
23560;DHT22;11958;50.836;4.438;2022-08-25T16:41:30;29.20;42.30
23560;DHT22;11958;50.836;4.438;2022-08-25T16:44:09;29.10;41.50
23560;DHT22;11958;50.836;4.438;2022-08-25T16:46:53;28.80;42.30
23560;DHT22;11958;50.836;4.438;2022-08-25T16:49:25;28.70;42.20
23560;DHT22;11958;50.836;4.438;2022-08-25T16:51:54;28.50;44.10
23560;DHT22;11958;50.836;4.438;2022-08-25T16:54:20;28.20;45.10
23560;DHT22;11958;50.836;4.438;2022-08-25T16:57:07;28.20;44.80
23560;DHT22;11958;50.836;4.438;2022-08-25T16:59:33;28.10;43.00
23560;DHT22;11958;50.836;4.438;2022-08-25T17:01:59;28.10;42.20
23560;DHT22;11958;50.836;4.438;2022-08-25T17:04:26;28.00;43.60
23560;DHT22;11958;50.836;4.438;2022-08-25T17:06:51;28.00;44.20
23560;DHT22;11958;50.836;4.438;2022-08-25T17:09:17;28.00;44.80
23560;DHT22;11958;50.836;4.438;2022-08-25T17:11:45;27.90;45.20
23560;DHT22;11958;50.836;4.438;2022-08-25T17:14:14;27.80;45.30
23560;DHT22;11958;50.836;4.438;2022-08-25T17:16:40;27.90;45.50
23560;DHT22;11958;50.836;4.438;2022-08-25T17:19:07;27.60;45.80
23560;DHT22;11958;50.836;4.438;2022-08-25T17:21:36;27.60;46.20
23560;DHT22;11958;50.836;4.438;2022-08-25T17:24:05;27.40;46.10
23560;DHT22;11958;50.836;4.438;2022-08-25T17:26:36;27.50;46.60
23560;DHT22;11958;50.836;4.438;2022-08-25T17:29:03;27.40;47.30
23560;DHT22;11958;50.836;4.438;2022-08-25T17:31:32;27.40;47.40
23560;DHT22;11958;50.836;4.438;2022-08-25T17:33:59;27.50;47.60
23560;DHT22;11958;50.836;4.438;2022-08-25T17:36:25;27.50;47.50
23560;DHT22;11958;50.836;4.438;2022-08-25T17:38:54;27.50;47.40
23560;DHT22;11958;50.836;4.438;2022-08-25T17:41:20;27.40;47.10
23560;DHT22;11958;50.836;4.438;2022-08-25T17:43:46;27.40;47.40
23560;DHT22;11958;50.836;4.438;2022-08-25T17:46:21;27.30;47.80
23560;DHT22;11958;50.836;4.438;2022-08-25T17:48:48;27.10;48.00
23560;DHT22;11958;50.836;4.438;2022-08-25T17:51:17;26.90;49.40
23560;DHT22;11958;50.836;4.438;2022-08-25T17:53:49;27.10;49.60
23560;DHT22;11958;50.836;4.438;2022-08-25T17:56:22;26.90;50.10
23560;DHT22;11958;50.836;4.438;2022-08-25T17:58:49;26.80;49.90
23560;DHT22;11958;50.836;4.438;2022-08-25T18:01:19;26.70;50.70
23560;DHT22;11958;50.836;4.438;2022-08-25T18:03:48;26.60;51.10
23560;DHT22;11958;50.836;4.438;2022-08-25T18:06:14;26.60;51.30
23560;DHT22;11958;50.836;4.438;2022-08-25T18:08:41;26.60;50.50
23560;DHT22;11958;50.836;4.438;2022-08-25T18:11:10;26.50;51.00
23560;DHT22;11958;50.836;4.438;2022-08-25T18:13:36;26.50;51.40
23560;DHT22;11958;50.836;4.438;2022-08-25T18:16:20;26.40;51.00
23560;DHT22;11958;50.836;4.438;2022-08-25T18:18:53;26.40;51.40
23560;DHT22;11958;50.836;4.438;2022-08-25T18:21:27;26.10;53.20
23560;DHT22;11958;50.836;4.438;2022-08-25T18:23:53;26.10;54.10
23560;DHT22;11958;50.836;4.438;2022-08-25T18:26:21;26.10;53.70
23560;DHT22;11958;50.836;4.438;2022-08-25T18:28:50;26.10;54.30
23560;DHT22;11958;50.836;4.438;2022-08-25T18:31:18;25.90;54.90
23560;DHT22;11958;50.836;4.438;2022-08-25T18:33:44;25.80;56.10
23560;DHT22;11958;50.836;4.438;2022-08-25T18:36:11;25.60;56.80
23560;DHT22;11958;50.836;4.438;2022-08-25T18:38:38;25.70;57.00
23560;DHT22;11958;50.836;4.438;2022-08-25T18:41:23;25.60;57.50
23560;DHT22;11958;50.836;4.438;2022-08-25T18:43:48;25.40;58.50
23560;DHT22;11958;50.836;4.438;2022-08-25T18:46:14;25.40;58.70
23560;DHT22;11958;50.836;4.438;2022-08-25T18:48:49;25.10;59.60
23560;DHT22;11958;50.836;4.438;2022-08-25T18:51:15;25.00;60.00
23560;DHT22;11958;50.836;4.438;2022-08-25T18:53:45;25.00;60.00
23560;DHT22;11958;50.836;4.438;2022-08-25T18:56:10;25.00;60.40
23560;DHT22;11958;50.836;4.438;2022-08-25T18:58:43;25.00;60.70
23560;DHT22;11958;50.836;4.438;2022-08-25T19:01:12;25.00;60.70
23560;DHT22;11958;50.836;4.438;2022-08-25T19:03:41;24.80;61.00
23560;DHT22;11958;50.836;4.438;2022-08-25T19:06:07;24.60;61.80
23560;DHT22;11958;50.836;4.438;2022-08-25T19:08:36;24.50;62.10
23560;DHT22;11958;50.836;4.438;2022-08-25T19:11:04;24.50;62.50
23560;DHT22;11958;50.836;4.438;2022-08-25T19:13:30;24.50;62.70